Latest Weather Observations for Cunderdin Airport

IDW60801

Issued at 8:03 pm WST Sunday 24 October 2021 (issued every 10 minutes, with the page automatically refreshed every 10 minutes)

About weather observations | Map of weather stations | Latest weather observations for WA | Other Formats
Station Details ID: 010286 Name: CUNDERDIN AIRFIELD Lat: -31.62 Lon: 117.22 Height: 216.7 m
Data from the previous 72 hours. | See also: Recent months at Cunderdin Airport
Date/Time
WST
Temp
°C
App
Temp
°C
Dew
Point
°C
Rel
Hum
%
Delta-T
°C
Wind Press
QNH
hPa
Press
MSL
hPa
Rain since
9am
mm
Dir  Spd
km/h
Gust
km/h
Spd
kts
Gust
kts
24/08:00pm 20.6 17.5 8.9 47 6.2 W 15 20 8 11 1010.0 1009.5 0.0
24/07:30pm 21.3 18.4 8.2 43 6.9 W 13 17 7 9 1009.6 1009.1 0.0
24/07:00pm 23.3 19.0 7.0 35 8.5 W 19 24 10 13 1009.3 1008.9 0.0
24/06:30pm 24.2 20.1 7.8 35 8.7 W 19 24 10 13 1009.0 1008.6 0.0
24/06:00pm 26.1 20.6 7.7 31 9.9 WSW 26 39 14 21 1008.8 1008.4 0.0
24/05:30pm 27.9 20.8 8.2 29 10.8 WSW 35 46 19 25 1008.6 1008.2 0.0
24/05:06pm 30.2 24.4 8.0 25 12.3 WNW 28 44 15 24 1008.1 1007.7 0.0
24/05:00pm 32.7 27.2 1.7 14 15.7 NW 20 30 11 16 1007.8 1007.3 0.0
24/04:30pm 32.7 25.3 -0.4 12 16.1 NW 28 43 15 23 1008.2 1007.8 0.0
24/04:00pm 33.5 26.6 0.2 12 16.5 NW 26 39 14 21 1008.5 1008.1 0.0
24/03:30pm 33.8 26.8 -0.7 11 16.9 NNW 26 37 14 20 1008.9 1008.5 0.0
24/03:17pm 33.7 26.5 0.4 12 16.6 NNW 28 46 15 25 1009.0 1008.6 0.0
24/03:00pm 33.8 27.5 1.6 13 16.4 NNW 24 41 13 22 1009.4 1009.0 0.0
24/02:30pm 33.4 27.1 1.3 13 16.2 NNW 24 37 13 20 1010.1 1009.6 0.0
24/02:00pm 32.9 25.9 1.9 14 15.8 NNW 28 43 15 23 1010.7 1010.2 0.0
24/01:36pm 33.1 26.1 2.1 14 15.8 NNW 28 46 15 25 1011.2 1010.7 0.0
24/01:30pm 32.6 26.3 1.7 14 15.6 NNW 24 43 13 23 1011.3 1010.8 0.0
24/01:00pm 32.5 25.4 1.6 14 15.6 N 28 43 15 23 1011.8 1011.3 0.0
24/12:44pm 32.9 26.1 2.9 15 15.5 NNW 28 46 15 25 1012.1 1011.7 0.0
24/12:30pm 32.4 26.9 4.2 17 14.8 NNW 22 44 12 24 1012.3 1011.9 0.0
24/12:00pm 32.1 26.2 4.0 17 14.7 NNW 24 37 13 20 1013.1 1012.7 0.0
24/11:30am 31.8 25.5 3.8 17 14.6 NNW 26 41 14 22 1013.7 1013.3 0.0
24/11:00am 30.8 23.7 3.8 18 14.0 N 30 39 16 21 1014.2 1013.8 0.0
24/10:30am 29.9 22.5 3.8 19 13.4 N 32 43 17 23 1014.9 1014.4 0.0
24/10:00am 29.0 21.9 3.8 20 12.9 N 30 41 16 22 1015.3 1014.8 0.0
24/09:30am 27.6 20.2 4.0 22 12.0 N 32 44 17 24 1015.8 1015.3 0.0
24/09:00am 26.2 19.2 4.1 24 11.2 N 30 39 16 21 1016.3 1015.9 0.0
24/08:30am 24.6 19.8 5.4 29 9.8 NNE 20 30 11 16 1016.6 1016.2 0.0
24/08:00am 22.2 18.1 6.0 35 8.2 NE 17 26 9 14 1016.9 1016.5 0.0
24/07:30am 19.0 15.9 7.1 46 6.1 ENE 13 19 7 10 1017.2 1016.8 0.0
24/07:00am 16.1 14.0 8.3 60 4.0 ESE 9 11 5 6 1017.3 1016.9 0.0
24/06:30am 14.1 12.8 9.3 73 2.5 ESE 6 9 3 5 1017.3 1016.9 0.0
24/06:00am 10.9 10.4 9.2 89 0.9 ESE 2 7 1 4 1017.3 1016.9 0.0
24/05:30am 8.9 7.6 7.8 93 0.5 E 4 7 2 4 1017.1 1016.7 0.0
24/05:00am 8.1 6.7 7.2 94 0.4 E 4 7 2 4 1017.1 1016.7 0.0
24/04:30am 8.3 6.4 7.5 95 0.4 ENE 7 9 4 5 1017.1 1016.7 0.0
24/04:00am 7.7 6.6 7.0 95 0.3 ENE 2 7 1 4 1017.0 1016.6 0.0
24/03:30am 7.9 7.2 7.1 95 0.4 CALM 0 0 0 0 1017.3 1016.9 0.0
24/03:00am 8.2 7.6 7.4 95 0.4 CALM 0 0 0 0 1017.3 1016.9 0.0
24/02:30am 7.9 7.2 7.0 94 0.4 CALM 0 0 0 0 1017.6 1017.2 0.0
24/02:00am 8.9 8.4 8.0 94 0.4 CALM 0 0 0 0 1017.7 1017.3 0.0
24/01:30am 8.6 8.1 7.7 94 0.4 CALM 0 0 0 0 1018.0 1017.6 0.0
24/01:00am 8.8 8.3 7.7 93 0.5 CALM 0 0 0 0 1018.4 1018.0 0.0
24/12:30am 9.6 9.3 8.5 93 0.5 CALM 0 0 0 0 1019.0 1018.6 0.0
24/12:00am 9.3 8.9 8.2 93 0.5 CALM 0 0 0 0 1019.5 1019.0 0.0
 
Date/Time
WST
Temp
°C
App
Temp
°C
Dew
Point
°C
Rel
Hum
%
Delta-T
°C
Wind Press
QNH
hPa
Press
MSL
hPa
Rain since
9am
mm
Dir  Spd
km/h
Gust
km/h
Spd
kts
Gust
kts
23/11:30pm 9.6 9.2 8.4 92 0.6 CALM 0 0 0 0 1019.6 1019.1 0.0
23/11:00pm 10.5 10.3 8.9 90 0.8 CALM 0 0 0 0 1019.7 1019.2 0.0
23/10:30pm 11.3 11.4 10.0 92 0.7 CALM 0 0 0 0 1019.8 1019.3 0.0
23/10:00pm 11.4 11.3 9.5 88 1.0 CALM 0 0 0 0 1020.2 1019.8 0.0
23/09:30pm 12.6 12.7 10.3 86 1.2 CALM 0 0 0 0 1020.4 1020.0 0.0
23/09:00pm 13.0 13.1 10.0 82 1.6 CALM 0 0 0 0 1020.5 1020.1 0.0
23/08:30pm 14.7 14.9 10.5 76 2.2 CALM 0 0 0 0 1020.7 1020.3 0.0
23/08:00pm 17.3 17.1 9.2 59 4.2 CALM 0 0 0 0 1020.5 1020.1 0.0
23/07:30pm 17.8 17.8 9.9 60 4.2 CALM 0 0 0 0 1020.6 1020.2 0.0
23/07:00pm 19.6 18.5 8.3 48 5.9 S 4 9 2 5 1020.5 1020.1 0.0
23/06:30pm 21.2 19.5 8.5 44 6.7 S 7 11 4 6 1020.3 1019.9 0.0
23/06:00pm 22.4 21.7 7.0 37 8.0 CALM 0 0 0 0 1020.4 1020.0 0.0
23/05:30pm 24.6 23.6 5.4 29 9.8 CALM 0 0 0 0 1020.4 1020.0 0.0
23/05:00pm 24.5 23.3 4.8 28 9.9 CALM 0 6 0 3 1020.3 1019.9 0.0
23/04:30pm 25.6 23.1 3.6 24 11.0 ESE 6 15 3 8 1020.3 1019.9 0.0
23/04:00pm 26.9 24.4 4.6 24 11.4 SE 7 17 4 9 1020.4 1020.0 0.0
23/03:30pm 27.1 23.5 4.8 24 11.5 S 13 19 7 10 1020.5 1020.1 0.0
23/03:00pm 26.0 23.3 2.7 22 11.4 SE 6 15 3 8 1020.9 1020.5 0.0
23/02:30pm 26.9 23.1 4.0 23 11.6 E 13 20 7 11 1021.2 1020.8 0.0
23/02:00pm 26.1 23.6 4.0 24 11.1 E 6 15 3 8 1021.7 1021.3 0.0
23/01:30pm 25.6 22.5 3.6 24 11.0 SE 9 19 5 10 1022.1 1021.7 0.0
23/01:00pm 24.7 20.8 3.4 25 10.5 SE 13 26 7 14 1022.5 1022.1 0.0
23/12:30pm 24.9 21.9 4.1 26 10.4 ESE 9 17 5 9 1023.0 1022.6 0.0
23/12:00pm 24.9 22.0 4.6 27 10.2 ENE 9 17 5 9 1023.4 1023.0 0.0
23/11:30am 23.4 20.1 4.4 29 9.5 SE 11 26 6 14 1024.1 1023.7 0.0
23/11:00am 23.6 20.1 5.5 31 9.2 E 13 22 7 12 1024.6 1024.2 0.0
23/10:30am 23.2 19.5 6.5 34 8.6 E 15 24 8 13 1025.1 1024.7 0.0
23/10:00am 22.2 19.4 6.8 37 7.9 E 11 19 6 10 1025.5 1025.1 0.0
23/09:30am 20.3 16.7 6.6 41 7.0 E 15 20 8 11 1025.9 1025.5 0.0
23/09:00am 19.3 15.5 7.7 47 6.0 E 17 22 9 12 1026.0 1025.6 0.0
23/08:30am 17.9 13.7 7.3 50 5.4 ENE 19 26 10 14 1026.2 1025.8 0.0
23/08:00am 15.8 10.9 6.8 55 4.4 ENE 22 32 12 17 1026.4 1026.0 0.0
23/07:30am 14.3 10.5 7.6 64 3.3 E 17 24 9 13 1026.3 1025.9 0.0
23/07:00am 12.4 9.0 7.7 73 2.3 E 15 20 8 11 1026.2 1025.8 0.0
23/06:30am 11.0 7.5 7.3 78 1.8 ESE 15 20 8 11 1025.9 1025.5 0.0
23/06:00am 9.9 6.8 7.2 83 1.3 ESE 13 17 7 9 1025.8 1025.4 0.0
23/05:30am 9.2 6.0 7.0 86 1.0 ESE 13 17 7 9 1025.4 1025.0 0.0
23/05:00am 9.4 6.2 7.0 85 1.1 ESE 13 17 7 9 1025.2 1024.8 0.0
23/04:30am 9.5 6.4 7.1 85 1.1 ESE 13 19 7 10 1025.1 1024.7 0.0
23/04:00am 9.4 6.7 7.2 86 1.0 ESE 11 15 6 8 1024.9 1024.5 0.0
23/03:30am 9.5 6.8 7.3 86 1.1 ESE 11 15 6 8 1024.6 1024.2 0.0
23/03:00am 9.6 7.2 7.2 85 1.1 ESE 9 13 5 7 1024.5 1024.1 0.0
23/02:30am 9.9 7.2 7.3 84 1.2 ESE 11 15 6 8 1024.5 1024.1 0.0
23/02:00am 9.7 7.4 7.6 87 1.0 ESE 9 11 5 6 1024.6 1024.2 0.0
23/01:30am 7.3 5.3 6.4 94 0.4 SE 6 9 3 5 1024.7 1024.3 0.0
23/01:00am 7.8 7.0 6.7 93 0.5 CALM 0 0 0 0 1024.9 1024.5 0.0
23/12:30am 8.8 6.9 7.6 92 0.6 WSW 7 9 4 5 1025.2 1024.8 0.0
23/12:00am 9.7 8.1 8.1 90 0.8 W 6 7 3 4 1025.2 1024.8 0.0
 
Date/Time
WST
Temp
°C
App
Temp
°C
Dew
Point
°C
Rel
Hum
%
Delta-T
°C
Wind Press
QNH
hPa
Press
MSL
hPa
Rain since
9am
mm
Dir  Spd
km/h
Gust
km/h
Spd
kts
Gust
kts
22/11:30pm 10.4 8.4 8.5 88 0.9 W 9 11 5 6 1025.2 1024.8 0.0
22/11:00pm 10.8 8.4 8.6 86 1.1 W 11 13 6 7 1025.2 1024.8 0.0
22/10:30pm 11.5 8.3 8.4 81 1.5 W 15 17 8 9 1025.2 1024.8 0.0
22/10:00pm 12.7 10.7 8.8 77 2.0 SSW 9 20 5 11 1025.2 1024.8 0.0
22/09:30pm 11.1 10.8 8.7 85 1.2 CALM 0 0 0 0 1025.1 1024.7 0.0
22/09:00pm 11.7 11.1 8.9 83 1.4 SW 2 7 1 4 1025.1 1024.7 0.0
22/08:30pm 12.2 12.2 9.9 86 1.2 CALM 0 0 0 0 1025.0 1024.6 0.0
22/08:00pm 12.9 11.5 9.7 81 1.6 SSW 7 7 4 4 1024.6 1024.2 0.0
22/07:30pm 13.5 12.1 9.6 77 2.0 S 7 9 4 5 1024.4 1024.0 0.0
22/07:00pm 15.0 13.4 8.9 67 3.1 SSW 7 9 4 5 1023.9 1023.6 0.0
22/06:30pm 16.2 13.5 7.4 56 4.4 SW 11 13 6 7 1023.6 1023.2 0.0
22/06:00pm 19.1 16.0 5.6 41 6.7 SSW 11 15 6 8 1023.2 1022.8 0.0
22/05:30pm 20.5 17.3 4.9 36 7.7 SSW 11 15 6 8 1023.0 1022.6 0.0
22/05:00pm 21.0 18.2 5.0 35 7.9 S 9 15 5 8 1022.9 1022.5 0.0
22/04:30pm 22.4 18.8 4.9 32 8.8 SSW 13 20 7 11 1022.7 1022.3 0.0
22/04:00pm 21.9 18.2 4.5 32 8.6 SW 13 17 7 9 1022.6 1022.2 0.0
22/03:30pm 20.5 17.3 4.9 36 7.7 S 11 19 6 10 1022.7 1022.3 0.0
22/03:00pm 20.5 17.6 4.9 36 7.7 SSW 9 19 5 10 1022.8 1022.4 0.0
22/02:30pm 22.9 20.5 5.3 32 8.9 S 7 15 4 8 1023.0 1022.6 0.0
22/02:00pm 22.3 20.2 5.7 34 8.4 ESE 6 13 3 7 1023.2 1022.8 0.0
22/01:30pm 20.0 16.1 5.3 38 7.3 S 15 20 8 11 1023.5 1023.1 0.0
22/01:00pm 21.5 18.8 5.4 35 8.0 WSW 9 20 5 11 1023.7 1023.3 0.0
22/12:30pm 19.8 17.5 5.8 40 7.0 SSW 7 19 4 10 1024.1 1023.7 0.0
22/12:00pm 19.3 17.0 5.7 41 6.7 SW 7 15 4 8 1024.4 1024.0 0.0
22/11:30am 19.2 17.2 7.0 45 6.2 SSE 7 13 4 7 1024.8 1024.4 0.0
22/11:00am 18.7 16.3 7.2 47 5.8 SSE 9 11 5 6 1025.0 1024.6 0.0
22/10:30am 18.1 15.7 7.2 49 5.5 SSE 9 15 5 8 1025.1 1024.7 0.0
22/10:00am 18.3 15.7 7.7 50 5.4 SE 11 19 6 10 1025.3 1024.9 0.0
22/09:30am 19.1 17.0 8.4 50 5.6 SSE 9 15 5 8 1025.4 1025.0 0.0
22/09:00am 18.1 15.7 8.7 54 4.9 SE 11 19 6 10 1025.3 1024.9 0.0
22/08:30am 16.1 14.9 9.5 65 3.5 SSE 6 15 3 8 1025.5 1025.1 0.0
22/08:00am 14.2 13.5 10.2 77 2.1 SSW 4 9 2 5 1025.4 1025.0 0.0
22/07:30am 12.5 12.2 10.0 85 1.3 SW 2 6 1 3 1025.1 1024.7 0.0
22/07:00am 11.0 11.1 10.2 95 0.4 CALM 0 0 0 0 1024.7 1024.3 0.0
22/06:30am 9.6 8.7 9.1 97 0.2 N 4 6 2 3 1024.4 1024.0 0.0
22/06:00am 8.0 6.3 7.6 97 0.2 NE 6 7 3 4 1023.8 1023.4 0.0
22/05:30am 6.2 4.8 5.5 95 0.3 W 2 9 1 5 1023.4 1023.0 0.0
22/05:00am 8.2 6.3 7.6 96 0.3 SSW 7 9 4 5 1023.0 1022.6 0.0
22/04:30am 8.0 6.7 7.6 97 0.2 S 4 9 2 5 1022.6 1022.2 0.0
22/04:00am 7.6 6.9 7.0 96 0.3 CALM 0 0 0 0 1022.3 1021.9 0.0
22/03:30am 8.5 6.7 8.1 97 0.2 WSW 7 9 4 5 1022.0 1021.6 0.0
22/03:00am 8.9 6.9 8.5 97 0.2 WSW 9 11 5 6 1021.7 1021.3 0.0
22/02:30am 8.6 6.9 8.2 97 0.2 WSW 7 11 4 6 1021.7 1021.3 0.0
22/02:00am 8.4 6.6 7.8 96 0.3 W 7 9 4 5 1021.8 1021.4 0.0
22/01:30am 8.3 6.6 7.5 95 0.4 W 6 7 3 4 1021.8 1021.4 0.0
22/01:00am 9.5 7.6 8.9 96 0.3 WSW 9 11 5 6 1021.8 1021.4 0.0
22/12:30am 9.6 6.9 9.0 96 0.3 WSW 13 15 7 8 1021.8 1021.4 0.0
22/12:00am 10.0 7.8 9.2 95 0.4 WSW 11 13 6 7 1021.9 1021.5 0.0
 
Date/Time
WST
Temp
°C
App
Temp
°C
Dew
Point
°C
Rel
Hum
%
Delta-T
°C
Wind Press
QNH
hPa
Press
MSL
hPa
Rain since
9am
mm
Dir  Spd
km/h
Gust
km/h
Spd
kts
Gust
kts
21/11:30pm 10.2 8.0 9.3 94 0.5 SW 11 13 6 7 1021.8 1021.4 0.0
21/11:00pm 10.8 8.3 9.7 93 0.6 SW 13 15 7 8 1021.8 1021.4 0.0
21/10:30pm 10.9 9.6 9.8 93 0.6 WSW 7 11 4 6 1021.5 1021.1 0.0
21/10:00pm 11.6 10.0 10.2 91 0.7 WSW 9 13 5 7 1021.4 1021.0 0.0
21/09:30pm 12.3 10.0 10.5 89 0.9 WSW 13 17 7 9 1021.4 1021.0 0.0
21/09:00pm 13.2 11.0 10.7 85 1.3 WSW 13 17 7 9 1021.5 1021.1 0.0
21/08:30pm 13.6 11.3 10.6 82 1.6 WSW 13 17 7 9 1021.5 1021.1 0.0

Other formats

Comma delimited format used in spreadsheet applications
http://www.bom.gov.au/fwo/IDW60801/IDW60801.95625.axf

JavaScript Object Notation format (JSON) in row-major order
http://www.bom.gov.au/fwo/IDW60801/IDW60801.95625.json

Data quality

Most of these data are generated automatically and are frequently updated. Quality checks on data are not normally performed. It is possible for incorrect values to appear. Refer to information at About Latest Weather Observations and please check the disclaimer before using these data.